sensor_id;sensor_type;location;lat;lon;timestamp;temperature;humidity
14527;DHT22;7350;51.208;4.238;2023-04-01T00:01:56;18.40;99.90
14527;DHT22;7350;51.208;4.238;2023-04-01T00:04:23;18.40;99.90
14527;DHT22;7350;51.208;4.238;2023-04-01T00:06:52;18.40;99.90
14527;DHT22;7350;51.208;4.238;2023-04-01T00:09:19;18.40;99.90
14527;DHT22;7350;51.208;4.238;2023-04-01T00:11:46;18.40;99.90
14527;DHT22;7350;51.208;4.238;2023-04-01T00:14:13;18.40;99.90
14527;DHT22;7350;51.208;4.238;2023-04-01T00:16:40;18.30;99.90
14527;DHT22;7350;51.208;4.238;2023-04-01T00:19:07;18.40;99.90
14527;DHT22;7350;51.208;4.238;2023-04-01T00:21:34;18.30;99.90
14527;DHT22;7350;51.208;4.238;2023-04-01T00:24:03;18.40;99.90
14527;DHT22;7350;51.208;4.238;2023-04-01T00:26:31;18.30;99.90
14527;DHT22;7350;51.208;4.238;2023-04-01T00:28:58;18.30;99.90
14527;DHT22;7350;51.208;4.238;2023-04-01T00:31:26;18.30;99.90
14527;DHT22;7350;51.208;4.238;2023-04-01T00:33:53;18.30;99.90
14527;DHT22;7350;51.208;4.238;2023-04-01T00:36:21;18.30;99.90
14527;DHT22;7350;51.208;4.238;2023-04-01T00:38:49;18.30;99.90
14527;DHT22;7350;51.208;4.238;2023-04-01T00:41:19;18.30;99.90
14527;DHT22;7350;51.208;4.238;2023-04-01T00:43:49;18.30;99.90
14527;DHT22;7350;51.208;4.238;2023-04-01T00:46:17;18.20;99.90
14527;DHT22;7350;51.208;4.238;2023-04-01T00:48:47;18.20;99.90
14527;DHT22;7350;51.208;4.238;2023-04-01T00:51:17;18.20;99.90
14527;DHT22;7350;51.208;4.238;2023-04-01T00:53:47;18.20;99.90
14527;DHT22;7350;51.208;4.238;2023-04-01T00:56:18;18.20;99.90
14527;DHT22;7350;51.208;4.238;2023-04-01T00:58:50;18.20;99.90
14527;DHT22;7350;51.208;4.238;2023-04-01T01:01:17;18.20;99.90
14527;DHT22;7350;51.208;4.238;2023-04-01T01:03:45;18.20;99.90
14527;DHT22;7350;51.208;4.238;2023-04-01T01:06:23;18.20;99.90
14527;DHT22;7350;51.208;4.238;2023-04-01T01:09:06;18.20;99.90
14527;DHT22;7350;51.208;4.238;2023-04-01T01:11:42;18.20;99.90
14527;DHT22;7350;51.208;4.238;2023-04-01T01:14:25;18.20;99.90
14527;DHT22;7350;51.208;4.238;2023-04-01T01:16:59;18.10;99.90
14527;DHT22;7350;51.208;4.238;2023-04-01T01:19:47;18.10;99.90
14527;DHT22;7350;51.208;4.238;2023-04-01T01:22:39;18.10;99.90
14527;DHT22;7350;51.208;4.238;2023-04-01T01:25:18;18.10;99.90
14527;DHT22;7350;51.208;4.238;2023-04-01T01:27:58;18.10;99.90
14527;DHT22;7350;51.208;4.238;2023-04-01T01:30:39;18.10;99.90
14527;DHT22;7350;51.208;4.238;2023-04-01T01:33:30;18.10;99.90
14527;DHT22;7350;51.208;4.238;2023-04-01T01:36:03;18.10;99.90
14527;DHT22;7350;51.208;4.238;2023-04-01T01:38:34;18.10;99.90
14527;DHT22;7350;51.208;4.238;2023-04-01T01:41:03;18.10;99.90
14527;DHT22;7350;51.208;4.238;2023-04-01T01:43:35;18.10;99.90
14527;DHT22;7350;51.208;4.238;2023-04-01T01:46:05;18.10;99.90
14527;DHT22;7350;51.208;4.238;2023-04-01T01:48:34;18.10;99.90
14527;DHT22;7350;51.208;4.238;2023-04-01T01:51:03;18.10;99.90
14527;DHT22;7350;51.208;4.238;2023-04-01T01:53:31;18.00;99.90
14527;DHT22;7350;51.208;4.238;2023-04-01T01:55:58;18.00;99.90
14527;DHT22;7350;51.208;4.238;2023-04-01T01:58:29;18.00;99.90
14527;DHT22;7350;51.208;4.238;2023-04-01T02:00:59;18.00;99.90
14527;DHT22;7350;51.208;4.238;2023-04-01T02:03:30;18.00;99.90
14527;DHT22;7350;51.208;4.238;2023-04-01T02:06:00;18.00;99.90
14527;DHT22;7350;51.208;4.238;2023-04-01T02:08:33;18.00;99.90
14527;DHT22;7350;51.208;4.238;2023-04-01T02:11:03;18.00;99.90
14527;DHT22;7350;51.208;4.238;2023-04-01T02:13:37;18.00;99.90
14527;DHT22;7350;51.208;4.238;2023-04-01T02:16:11;18.00;99.90
14527;DHT22;7350;51.208;4.238;2023-04-01T02:18:40;18.00;99.90
14527;DHT22;7350;51.208;4.238;2023-04-01T02:21:08;18.00;99.90
14527;DHT22;7350;51.208;4.238;2023-04-01T02:23:38;18.00;99.90
14527;DHT22;7350;51.208;4.238;2023-04-01T02:26:07;17.90;99.90
14527;DHT22;7350;51.208;4.238;2023-04-01T02:28:37;17.90;99.90
14527;DHT22;7350;51.208;4.238;2023-04-01T02:31:04;18.00;99.90
14527;DHT22;7350;51.208;4.238;2023-04-01T02:33:33;18.00;99.90
14527;DHT22;7350;51.208;4.238;2023-04-01T02:36:00;17.90;99.90
14527;DHT22;7350;51.208;4.238;2023-04-01T02:38:27;17.90;99.90
14527;DHT22;7350;51.208;4.238;2023-04-01T02:40:59;17.90;99.90
14527;DHT22;7350;51.208;4.238;2023-04-01T02:43:26;17.90;99.90
14527;DHT22;7350;51.208;4.238;2023-04-01T02:45:54;17.90;99.90
14527;DHT22;7350;51.208;4.238;2023-04-01T02:48:21;17.90;99.90
14527;DHT22;7350;51.208;4.238;2023-04-01T02:50:48;17.90;99.90
14527;DHT22;7350;51.208;4.238;2023-04-01T02:53:15;17.90;99.90
14527;DHT22;7350;51.208;4.238;2023-04-01T02:55:42;17.80;99.90
14527;DHT22;7350;51.208;4.238;2023-04-01T02:58:12;17.90;99.90
14527;DHT22;7350;51.208;4.238;2023-04-01T03:00:41;17.90;99.90
14527;DHT22;7350;51.208;4.238;2023-04-01T03:03:08;17.80;99.90
14527;DHT22;7350;51.208;4.238;2023-04-01T03:05:35;17.80;99.90
14527;DHT22;7350;51.208;4.238;2023-04-01T03:08:02;17.80;99.90
14527;DHT22;7350;51.208;4.238;2023-04-01T03:10:29;17.80;99.90
14527;DHT22;7350;51.208;4.238;2023-04-01T03:12:56;17.80;99.90
14527;DHT22;7350;51.208;4.238;2023-04-01T03:15:24;17.80;99.90
14527;DHT22;7350;51.208;4.238;2023-04-01T03:17:51;17.80;99.90
14527;DHT22;7350;51.208;4.238;2023-04-01T03:20:18;17.80;99.90
14527;DHT22;7350;51.208;4.238;2023-04-01T03:22:45;17.80;99.90
14527;DHT22;7350;51.208;4.238;2023-04-01T03:25:12;17.80;99.90
14527;DHT22;7350;51.208;4.238;2023-04-01T03:27:39;17.80;99.90
14527;DHT22;7350;51.208;4.238;2023-04-01T03:30:07;17.80;99.90
14527;DHT22;7350;51.208;4.238;2023-04-01T03:32:36;17.80;99.90
14527;DHT22;7350;51.208;4.238;2023-04-01T03:35:03;17.80;99.90
14527;DHT22;7350;51.208;4.238;2023-04-01T03:37:31;17.80;99.90
14527;DHT22;7350;51.208;4.238;2023-04-01T03:39:58;17.70;99.90
14527;DHT22;7350;51.208;4.238;2023-04-01T03:42:25;17.70;99.90
14527;DHT22;7350;51.208;4.238;2023-04-01T03:44:52;17.70;99.90
14527;DHT22;7350;51.208;4.238;2023-04-01T03:47:19;17.70;99.90
14527;DHT22;7350;51.208;4.238;2023-04-01T03:49:47;17.70;99.90
14527;DHT22;7350;51.208;4.238;2023-04-01T03:52:14;17.70;99.90
14527;DHT22;7350;51.208;4.238;2023-04-01T03:54:41;17.70;99.90
14527;DHT22;7350;51.208;4.238;2023-04-01T03:57:08;17.70;99.90
14527;DHT22;7350;51.208;4.238;2023-04-01T03:59:35;17.70;99.90
14527;DHT22;7350;51.208;4.238;2023-04-01T04:02:02;17.70;99.90
14527;DHT22;7350;51.208;4.238;2023-04-01T04:04:29;17.70;99.90
14527;DHT22;7350;51.208;4.238;2023-04-01T04:06:57;17.70;99.90
14527;DHT22;7350;51.208;4.238;2023-04-01T04:09:24;17.70;99.90
14527;DHT22;7350;51.208;4.238;2023-04-01T04:11:51;17.70;99.90
14527;DHT22;7350;51.208;4.238;2023-04-01T04:14:19;17.70;99.90
14527;DHT22;7350;51.208;4.238;2023-04-01T04:16:46;17.70;99.90
14527;DHT22;7350;51.208;4.238;2023-04-01T04:19:13;17.70;99.90
14527;DHT22;7350;51.208;4.238;2023-04-01T04:21:40;17.70;99.90
14527;DHT22;7350;51.208;4.238;2023-04-01T04:24:09;17.70;99.90
14527;DHT22;7350;51.208;4.238;2023-04-01T04:26:36;17.60;99.90
14527;DHT22;7350;51.208;4.238;2023-04-01T04:29:03;17.70;99.90
14527;DHT22;7350;51.208;4.238;2023-04-01T04:31:30;17.60;99.90
14527;DHT22;7350;51.208;4.238;2023-04-01T04:33:59;17.60;99.90
14527;DHT22;7350;51.208;4.238;2023-04-01T04:36:26;17.60;99.90
14527;DHT22;7350;51.208;4.238;2023-04-01T04:38:55;17.60;99.90
14527;DHT22;7350;51.208;4.238;2023-04-01T04:41:24;17.60;99.90
14527;DHT22;7350;51.208;4.238;2023-04-01T04:43:53;17.60;99.90
14527;DHT22;7350;51.208;4.238;2023-04-01T04:46:21;17.60;99.90
14527;DHT22;7350;51.208;4.238;2023-04-01T04:48:48;17.60;99.90
14527;DHT22;7350;51.208;4.238;2023-04-01T04:51:17;17.60;99.90
14527;DHT22;7350;51.208;4.238;2023-04-01T04:53:45;17.60;99.90
14527;DHT22;7350;51.208;4.238;2023-04-01T04:56:12;17.50;99.90
14527;DHT22;7350;51.208;4.238;2023-04-01T04:58:40;17.60;99.90
14527;DHT22;7350;51.208;4.238;2023-04-01T05:01:09;17.60;99.90
14527;DHT22;7350;51.208;4.238;2023-04-01T05:03:36;17.70;99.90
14527;DHT22;7350;51.208;4.238;2023-04-01T05:06:04;17.70;99.90
14527;DHT22;7350;51.208;4.238;2023-04-01T05:08:31;17.80;99.90
14527;DHT22;7350;51.208;4.238;2023-04-01T05:10:59;17.80;99.90
14527;DHT22;7350;51.208;4.238;2023-04-01T05:13:26;17.90;99.90
14527;DHT22;7350;51.208;4.238;2023-04-01T05:15:55;18.00;99.90
14527;DHT22;7350;51.208;4.238;2023-04-01T05:18:24;18.10;99.90
14527;DHT22;7350;51.208;4.238;2023-04-01T05:20:52;18.10;99.90
14527;DHT22;7350;51.208;4.238;2023-04-01T05:23:21;18.10;99.90
14527;DHT22;7350;51.208;4.238;2023-04-01T05:25:49;18.20;99.90
14527;DHT22;7350;51.208;4.238;2023-04-01T05:28:16;18.20;99.90
14527;DHT22;7350;51.208;4.238;2023-04-01T05:30:44;18.30;99.90
14527;DHT22;7350;51.208;4.238;2023-04-01T05:33:13;18.40;99.90
14527;DHT22;7350;51.208;4.238;2023-04-01T05:35:40;18.50;99.90
14527;DHT22;7350;51.208;4.238;2023-04-01T05:38:07;18.50;99.90
14527;DHT22;7350;51.208;4.238;2023-04-01T05:40:34;18.60;99.90
14527;DHT22;7350;51.208;4.238;2023-04-01T05:43:01;18.60;99.90
14527;DHT22;7350;51.208;4.238;2023-04-01T05:45:28;18.70;99.90
14527;DHT22;7350;51.208;4.238;2023-04-01T05:47:55;18.70;99.90
14527;DHT22;7350;51.208;4.238;2023-04-01T05:50:24;18.70;99.90
14527;DHT22;7350;51.208;4.238;2023-04-01T05:52:51;18.70;99.90
14527;DHT22;7350;51.208;4.238;2023-04-01T05:55:18;18.80;99.90
14527;DHT22;7350;51.208;4.238;2023-04-01T05:57:46;18.80;99.90
14527;DHT22;7350;51.208;4.238;2023-04-01T06:00:16;18.90;99.90
14527;DHT22;7350;51.208;4.238;2023-04-01T06:02:45;18.90;99.90
14527;DHT22;7350;51.208;4.238;2023-04-01T06:05:15;18.90;99.90
14527;DHT22;7350;51.208;4.238;2023-04-01T06:07:45;19.00;99.90
14527;DHT22;7350;51.208;4.238;2023-04-01T06:10:14;19.00;99.90
14527;DHT22;7350;51.208;4.238;2023-04-01T06:12:55;19.10;99.90
14527;DHT22;7350;51.208;4.238;2023-04-01T06:15:35;19.10;99.90
14527;DHT22;7350;51.208;4.238;2023-04-01T06:18:49;19.20;99.90
14527;DHT22;7350;51.208;4.238;2023-04-01T06:21:37;19.20;99.90
14527;DHT22;7350;51.208;4.238;2023-04-01T06:24:26;19.30;99.90
14527;DHT22;7350;51.208;4.238;2023-04-01T06:27:02;19.30;99.90
14527;DHT22;7350;51.208;4.238;2023-04-01T06:29:46;19.30;99.90
14527;DHT22;7350;51.208;4.238;2023-04-01T06:32:27;19.30;99.90
14527;DHT22;7350;51.208;4.238;2023-04-01T06:35:20;19.40;99.90
14527;DHT22;7350;51.208;4.238;2023-04-01T06:38:25;19.30;99.90
14527;DHT22;7350;51.208;4.238;2023-04-01T06:41:33;19.40;99.90
14527;DHT22;7350;51.208;4.238;2023-04-01T06:44:11;19.40;99.90
14527;DHT22;7350;51.208;4.238;2023-04-01T06:46:45;19.40;99.90
14527;DHT22;7350;51.208;4.238;2023-04-01T06:49:41;19.40;99.90
14527;DHT22;7350;51.208;4.238;2023-04-01T06:52:18;19.40;99.90
14527;DHT22;7350;51.208;4.238;2023-04-01T06:54:49;19.50;99.90
14527;DHT22;7350;51.208;4.238;2023-04-01T06:57:24;19.50;99.90
14527;DHT22;7350;51.208;4.238;2023-04-01T06:59:56;19.50;99.90
14527;DHT22;7350;51.208;4.238;2023-04-01T07:02:29;19.60;99.90
14527;DHT22;7350;51.208;4.238;2023-04-01T07:04:59;19.60;99.90
14527;DHT22;7350;51.208;4.238;2023-04-01T07:07:33;19.60;99.90
14527;DHT22;7350;51.208;4.238;2023-04-01T07:10:05;19.60;99.90
14527;DHT22;7350;51.208;4.238;2023-04-01T07:12:43;19.60;99.90
14527;DHT22;7350;51.208;4.238;2023-04-01T07:15:18;19.60;99.90
14527;DHT22;7350;51.208;4.238;2023-04-01T07:17:48;19.70;99.90
14527;DHT22;7350;51.208;4.238;2023-04-01T07:20:22;19.70;99.90
14527;DHT22;7350;51.208;4.238;2023-04-01T07:22:53;19.70;99.90
14527;DHT22;7350;51.208;4.238;2023-04-01T07:25:24;19.70;99.90
14527;DHT22;7350;51.208;4.238;2023-04-01T07:27:58;19.70;99.90
14527;DHT22;7350;51.208;4.238;2023-04-01T07:30:30;19.80;99.90
14527;DHT22;7350;51.208;4.238;2023-04-01T07:33:06;19.80;99.90
14527;DHT22;7350;51.208;4.238;2023-04-01T07:35:39;19.80;99.90
14527;DHT22;7350;51.208;4.238;2023-04-01T07:38:16;19.80;99.90
14527;DHT22;7350;51.208;4.238;2023-04-01T07:40:54;19.80;99.90
14527;DHT22;7350;51.208;4.238;2023-04-01T07:43:36;19.80;99.90
14527;DHT22;7350;51.208;4.238;2023-04-01T07:46:13;19.90;99.90
14527;DHT22;7350;51.208;4.238;2023-04-01T07:48:47;19.80;99.90
14527;DHT22;7350;51.208;4.238;2023-04-01T07:51:19;19.70;99.90
14527;DHT22;7350;51.208;4.238;2023-04-01T07:53:51;19.70;99.90
14527;DHT22;7350;51.208;4.238;2023-04-01T07:56:30;19.60;99.90
14527;DHT22;7350;51.208;4.238;2023-04-01T07:59:06;19.50;99.90
14527;DHT22;7350;51.208;4.238;2023-04-01T08:01:40;19.50;99.90
14527;DHT22;7350;51.208;4.238;2023-04-01T08:04:33;19.50;99.90
14527;DHT22;7350;51.208;4.238;2023-04-01T08:07:07;19.40;99.90
14527;DHT22;7350;51.208;4.238;2023-04-01T08:09:41;19.40;99.90
14527;DHT22;7350;51.208;4.238;2023-04-01T08:12:21;19.40;99.90
14527;DHT22;7350;51.208;4.238;2023-04-01T08:15:01;19.30;99.90
14527;DHT22;7350;51.208;4.238;2023-04-01T08:17:39;19.30;99.90
14527;DHT22;7350;51.208;4.238;2023-04-01T08:20:27;19.20;99.90
14527;DHT22;7350;51.208;4.238;2023-04-01T08:23:00;19.20;99.90
14527;DHT22;7350;51.208;4.238;2023-04-01T08:25:29;19.20;99.90
14527;DHT22;7350;51.208;4.238;2023-04-01T08:28:02;19.10;99.90
14527;DHT22;7350;51.208;4.238;2023-04-01T08:30:40;19.20;99.90
14527;DHT22;7350;51.208;4.238;2023-04-01T08:33:13;19.20;99.90
14527;DHT22;7350;51.208;4.238;2023-04-01T08:35:46;19.10;99.90
14527;DHT22;7350;51.208;4.238;2023-04-01T08:38:18;19.10;99.90
14527;DHT22;7350;51.208;4.238;2023-04-01T08:40:58;19.10;99.90
14527;DHT22;7350;51.208;4.238;2023-04-01T08:47:00;19.00;99.90
14527;DHT22;7350;51.208;4.238;2023-04-01T08:49:45;19.00;99.90
14527;DHT22;7350;51.208;4.238;2023-04-01T08:52:34;19.00;99.90
14527;DHT22;7350;51.208;4.238;2023-04-01T08:55:27;18.90;99.90
14527;DHT22;7350;51.208;4.238;2023-04-01T08:58:25;18.90;99.90
14527;DHT22;7350;51.208;4.238;2023-04-01T09:00:57;18.80;99.90
14527;DHT22;7350;51.208;4.238;2023-04-01T09:03:50;18.80;99.90
14527;DHT22;7350;51.208;4.238;2023-04-01T09:06:32;18.80;99.90
14527;DHT22;7350;51.208;4.238;2023-04-01T09:09:34;18.80;99.90
14527;DHT22;7350;51.208;4.238;2023-04-01T09:12:36;18.70;99.90
14527;DHT22;7350;51.208;4.238;2023-04-01T09:21:39;18.60;99.90
14527;DHT22;7350;51.208;4.238;2023-04-01T09:24:30;18.50;99.90
14527;DHT22;7350;51.208;4.238;2023-04-01T09:27:04;18.50;99.90
14527;DHT22;7350;51.208;4.238;2023-04-01T09:29:59;18.60;99.90
14527;DHT22;7350;51.208;4.238;2023-04-01T09:32:52;18.60;99.90
14527;DHT22;7350;51.208;4.238;2023-04-01T09:35:25;18.50;99.90
14527;DHT22;7350;51.208;4.238;2023-04-01T09:38:05;18.50;99.90
14527;DHT22;7350;51.208;4.238;2023-04-01T09:40:44;18.60;99.90
14527;DHT22;7350;51.208;4.238;2023-04-01T09:43:21;18.50;99.90
14527;DHT22;7350;51.208;4.238;2023-04-01T09:46:00;18.50;99.90
14527;DHT22;7350;51.208;4.238;2023-04-01T09:51:51;18.50;99.90
14527;DHT22;7350;51.208;4.238;2023-04-01T09:54:35;18.40;99.90
14527;DHT22;7350;51.208;4.238;2023-04-01T09:57:33;18.40;99.90
14527;DHT22;7350;51.208;4.238;2023-04-01T10:00:20;18.40;99.90
14527;DHT22;7350;51.208;4.238;2023-04-01T10:06:23;18.40;99.90
14527;DHT22;7350;51.208;4.238;2023-04-01T10:34:00;18.30;99.90
14527;DHT22;7350;51.208;4.238;2023-04-01T10:36:51;18.30;99.90
14527;DHT22;7350;51.208;4.238;2023-04-01T10:51:54;18.30;99.90
14527;DHT22;7350;51.208;4.238;2023-04-01T10:54:47;18.30;99.90
14527;DHT22;7350;51.208;4.238;2023-04-01T10:57:42;18.20;99.90
14527;DHT22;7350;51.208;4.238;2023-04-01T11:04:06;18.20;99.90
14527;DHT22;7350;51.208;4.238;2023-04-01T11:19:52;18.20;99.90
14527;DHT22;7350;51.208;4.238;2023-04-01T11:22:56;18.20;99.90
14527;DHT22;7350;51.208;4.238;2023-04-01T11:25:49;18.10;99.90
14527;DHT22;7350;51.208;4.238;2023-04-01T11:28:35;18.10;99.90
14527;DHT22;7350;51.208;4.238;2023-04-01T11:34:23;18.20;99.90
14527;DHT22;7350;51.208;4.238;2023-04-01T11:37:05;18.20;99.90
14527;DHT22;7350;51.208;4.238;2023-04-01T11:39:41;18.10;99.90
14527;DHT22;7350;51.208;4.238;2023-04-01T11:42:17;18.10;99.90
14527;DHT22;7350;51.208;4.238;2023-04-01T11:44:53;18.10;99.90
14527;DHT22;7350;51.208;4.238;2023-04-01T11:47:44;18.10;99.90
14527;DHT22;7350;51.208;4.238;2023-04-01T11:50:21;18.10;99.90
14527;DHT22;7350;51.208;4.238;2023-04-01T11:53:13;18.10;99.90
14527;DHT22;7350;51.208;4.238;2023-04-01T11:55:53;18.10;99.90
14527;DHT22;7350;51.208;4.238;2023-04-01T11:58:36;18.10;99.90
14527;DHT22;7350;51.208;4.238;2023-04-01T12:01:34;18.10;99.90
14527;DHT22;7350;51.208;4.238;2023-04-01T12:07:34;18.10;99.90
14527;DHT22;7350;51.208;4.238;2023-04-01T12:10:17;18.10;99.90
14527;DHT22;7350;51.208;4.238;2023-04-01T12:12:51;18.10;99.90
14527;DHT22;7350;51.208;4.238;2023-04-01T12:15:29;18.10;99.90
14527;DHT22;7350;51.208;4.238;2023-04-01T12:18:04;18.10;99.90
14527;DHT22;7350;51.208;4.238;2023-04-01T12:20:47;18.10;99.90
14527;DHT22;7350;51.208;4.238;2023-04-01T12:26:30;18.10;99.90
14527;DHT22;7350;51.208;4.238;2023-04-01T12:29:09;18.10;99.90
14527;DHT22;7350;51.208;4.238;2023-04-01T12:31:48;18.10;99.90
14527;DHT22;7350;51.208;4.238;2023-04-01T12:37:20;18.00;99.90
14527;DHT22;7350;51.208;4.238;2023-04-01T12:42:58;18.00;99.90
14527;DHT22;7350;51.208;4.238;2023-04-01T12:45:31;18.10;99.90
14527;DHT22;7350;51.208;4.238;2023-04-01T12:51:26;18.10;99.90
14527;DHT22;7350;51.208;4.238;2023-04-01T12:56:55;18.00;99.90
14527;DHT22;7350;51.208;4.238;2023-04-01T12:59:41;18.00;99.90
14527;DHT22;7350;51.208;4.238;2023-04-01T13:02:24;18.00;99.90
14527;DHT22;7350;51.208;4.238;2023-04-01T13:08:17;18.00;99.90
14527;DHT22;7350;51.208;4.238;2023-04-01T13:11:00;18.00;99.90
14527;DHT22;7350;51.208;4.238;2023-04-01T13:16:42;17.90;99.90
14527;DHT22;7350;51.208;4.238;2023-04-01T13:19:19;18.00;99.90
14527;DHT22;7350;51.208;4.238;2023-04-01T13:21:54;18.00;99.90
14527;DHT22;7350;51.208;4.238;2023-04-01T13:24:37;18.00;99.90
14527;DHT22;7350;51.208;4.238;2023-04-01T13:27:10;18.00;99.90
14527;DHT22;7350;51.208;4.238;2023-04-01T13:29:43;18.00;99.90
14527;DHT22;7350;51.208;4.238;2023-04-01T13:32:26;18.00;99.90
14527;DHT22;7350;51.208;4.238;2023-04-01T13:35:08;18.00;99.90
14527;DHT22;7350;51.208;4.238;2023-04-01T13:37:51;18.00;99.90
14527;DHT22;7350;51.208;4.238;2023-04-01T13:40:30;17.90;99.90
14527;DHT22;7350;51.208;4.238;2023-04-01T13:43:03;18.00;99.90
14527;DHT22;7350;51.208;4.238;2023-04-01T13:45:40;17.90;99.90
14527;DHT22;7350;51.208;4.238;2023-04-01T13:48:30;17.90;99.90
14527;DHT22;7350;51.208;4.238;2023-04-01T13:51:26;18.00;99.90
14527;DHT22;7350;51.208;4.238;2023-04-01T13:54:17;17.90;99.90
14527;DHT22;7350;51.208;4.238;2023-04-01T13:57:00;17.90;99.90
14527;DHT22;7350;51.208;4.238;2023-04-01T13:59:59;17.90;99.90
14527;DHT22;7350;51.208;4.238;2023-04-01T14:02:51;17.90;99.90
14527;DHT22;7350;51.208;4.238;2023-04-01T14:05:35;17.90;99.90
14527;DHT22;7350;51.208;4.238;2023-04-01T14:08:15;18.00;99.90
14527;DHT22;7350;51.208;4.238;2023-04-01T14:10:50;18.00;99.90
14527;DHT22;7350;51.208;4.238;2023-04-01T14:13:28;18.00;99.90
14527;DHT22;7350;51.208;4.238;2023-04-01T14:16:17;18.00;99.90
14527;DHT22;7350;51.208;4.238;2023-04-01T14:18:57;18.00;99.90
14527;DHT22;7350;51.208;4.238;2023-04-01T14:21:36;18.00;99.90
14527;DHT22;7350;51.208;4.238;2023-04-01T14:24:20;18.00;99.90
14527;DHT22;7350;51.208;4.238;2023-04-01T14:30:12;17.90;99.90
14527;DHT22;7350;51.208;4.238;2023-04-01T14:32:46;18.00;99.90
14527;DHT22;7350;51.208;4.238;2023-04-01T14:35:29;18.00;99.90
14527;DHT22;7350;51.208;4.238;2023-04-01T14:38:25;18.00;99.90
14527;DHT22;7350;51.208;4.238;2023-04-01T14:41:02;18.00;99.90
14527;DHT22;7350;51.208;4.238;2023-04-01T14:44:01;18.00;99.90
14527;DHT22;7350;51.208;4.238;2023-04-01T14:49:35;17.90;99.90
14527;DHT22;7350;51.208;4.238;2023-04-01T14:52:11;18.00;99.90
14527;DHT22;7350;51.208;4.238;2023-04-01T14:54:44;18.00;99.90
14527;DHT22;7350;51.208;4.238;2023-04-01T14:57:15;18.00;99.90
14527;DHT22;7350;51.208;4.238;2023-04-01T14:59:48;18.00;99.90
14527;DHT22;7350;51.208;4.238;2023-04-01T15:02:37;17.90;99.90
14527;DHT22;7350;51.208;4.238;2023-04-01T15:05:15;18.00;99.90
14527;DHT22;7350;51.208;4.238;2023-04-01T15:08:13;18.00;99.90
14527;DHT22;7350;51.208;4.238;2023-04-01T15:10:50;18.00;99.90
14527;DHT22;7350;51.208;4.238;2023-04-01T15:13:26;18.00;99.90
14527;DHT22;7350;51.208;4.238;2023-04-01T15:16:08;18.00;99.90
14527;DHT22;7350;51.208;4.238;2023-04-01T15:18:44;18.00;99.90
14527;DHT22;7350;51.208;4.238;2023-04-01T15:21:24;18.00;99.90
14527;DHT22;7350;51.208;4.238;2023-04-01T15:24:06;18.00;99.90
14527;DHT22;7350;51.208;4.238;2023-04-01T15:27:05;18.10;99.90
14527;DHT22;7350;51.208;4.238;2023-04-01T15:29:46;18.00;99.90
14527;DHT22;7350;51.208;4.238;2023-04-01T15:32:25;18.00;99.90
14527;DHT22;7350;51.208;4.238;2023-04-01T15:34:59;18.00;99.90
14527;DHT22;7350;51.208;4.238;2023-04-01T15:37:37;18.00;99.90
14527;DHT22;7350;51.208;4.238;2023-04-01T15:40:20;18.00;99.90
14527;DHT22;7350;51.208;4.238;2023-04-01T15:43:10;18.00;99.90
14527;DHT22;7350;51.208;4.238;2023-04-01T15:45:49;18.00;99.90
14527;DHT22;7350;51.208;4.238;2023-04-01T15:48:31;17.90;99.90
14527;DHT22;7350;51.208;4.238;2023-04-01T15:51:12;17.90;99.90
14527;DHT22;7350;51.208;4.238;2023-04-01T15:54:05;17.90;99.90
14527;DHT22;7350;51.208;4.238;2023-04-01T15:56:48;17.80;99.90
14527;DHT22;7350;51.208;4.238;2023-04-01T15:59:29;17.80;99.90
14527;DHT22;7350;51.208;4.238;2023-04-01T16:02:09;17.80;99.90
14527;DHT22;7350;51.208;4.238;2023-04-01T16:04:51;17.80;99.90
14527;DHT22;7350;51.208;4.238;2023-04-01T16:07:42;17.80;99.90
14527;DHT22;7350;51.208;4.238;2023-04-01T16:13:26;17.80;99.90
14527;DHT22;7350;51.208;4.238;2023-04-01T16:16:02;17.80;99.90
14527;DHT22;7350;51.208;4.238;2023-04-01T16:18:44;17.80;99.90
14527;DHT22;7350;51.208;4.238;2023-04-01T16:21:14;17.70;99.90
14527;DHT22;7350;51.208;4.238;2023-04-01T16:23:51;17.70;99.90
14527;DHT22;7350;51.208;4.238;2023-04-01T16:26:24;17.70;99.90
14527;DHT22;7350;51.208;4.238;2023-04-01T16:28:57;17.70;99.90
14527;DHT22;7350;51.208;4.238;2023-04-01T16:31:35;17.70;99.90
14527;DHT22;7350;51.208;4.238;2023-04-01T16:34:09;17.60;99.90
14527;DHT22;7350;51.208;4.238;2023-04-01T16:36:42;17.60;99.90
14527;DHT22;7350;51.208;4.238;2023-04-01T16:39:28;17.60;99.90
14527;DHT22;7350;51.208;4.238;2023-04-01T16:42:11;17.60;99.90
14527;DHT22;7350;51.208;4.238;2023-04-01T16:44:49;17.60;99.90
14527;DHT22;7350;51.208;4.238;2023-04-01T16:47:21;17.60;99.90
14527;DHT22;7350;51.208;4.238;2023-04-01T16:49:59;17.70;99.90
14527;DHT22;7350;51.208;4.238;2023-04-01T16:52:43;17.70;99.90
14527;DHT22;7350;51.208;4.238;2023-04-01T16:55:16;17.60;99.90
14527;DHT22;7350;51.208;4.238;2023-04-01T16:57:49;17.70;99.90
14527;DHT22;7350;51.208;4.238;2023-04-01T17:00:24;17.60;99.90
14527;DHT22;7350;51.208;4.238;2023-04-01T17:03:01;17.60;99.90
14527;DHT22;7350;51.208;4.238;2023-04-01T17:05:42;17.50;99.90
14527;DHT22;7350;51.208;4.238;2023-04-01T17:08:21;17.60;99.90
14527;DHT22;7350;51.208;4.238;2023-04-01T17:10:52;17.70;99.90
14527;DHT22;7350;51.208;4.238;2023-04-01T17:13:35;17.80;99.90
14527;DHT22;7350;51.208;4.238;2023-04-01T17:16:18;17.90;99.90
14527;DHT22;7350;51.208;4.238;2023-04-01T17:18:53;18.00;99.90
14527;DHT22;7350;51.208;4.238;2023-04-01T17:21:38;18.00;99.90
14527;DHT22;7350;51.208;4.238;2023-04-01T17:24:26;18.10;99.90
14527;DHT22;7350;51.208;4.238;2023-04-01T17:26:59;18.10;99.90
14527;DHT22;7350;51.208;4.238;2023-04-01T17:29:36;18.10;99.90
14527;DHT22;7350;51.208;4.238;2023-04-01T17:32:11;18.20;99.90
14527;DHT22;7350;51.208;4.238;2023-04-01T17:34:51;18.30;99.90
14527;DHT22;7350;51.208;4.238;2023-04-01T17:37:32;18.30;99.90
14527;DHT22;7350;51.208;4.238;2023-04-01T17:40:12;18.40;99.90
14527;DHT22;7350;51.208;4.238;2023-04-01T17:42:46;18.40;99.90
14527;DHT22;7350;51.208;4.238;2023-04-01T17:45:21;18.50;99.90
14527;DHT22;7350;51.208;4.238;2023-04-01T17:48:03;18.50;99.90
14527;DHT22;7350;51.208;4.238;2023-04-01T17:50:52;18.60;99.90
14527;DHT22;7350;51.208;4.238;2023-04-01T17:53:32;18.60;99.90
14527;DHT22;7350;51.208;4.238;2023-04-01T17:56:08;18.70;99.90
14527;DHT22;7350;51.208;4.238;2023-04-01T17:58:45;18.70;99.90
14527;DHT22;7350;51.208;4.238;2023-04-01T18:01:24;18.70;99.90
14527;DHT22;7350;51.208;4.238;2023-04-01T18:04:11;18.80;99.90
14527;DHT22;7350;51.208;4.238;2023-04-01T18:06:56;18.80;99.90
14527;DHT22;7350;51.208;4.238;2023-04-01T18:09:39;18.90;99.90
14527;DHT22;7350;51.208;4.238;2023-04-01T18:12:15;18.90;99.90
14527;DHT22;7350;51.208;4.238;2023-04-01T18:14:58;18.90;99.90
14527;DHT22;7350;51.208;4.238;2023-04-01T18:17:46;18.90;99.90
14527;DHT22;7350;51.208;4.238;2023-04-01T18:20:31;18.90;99.90
14527;DHT22;7350;51.208;4.238;2023-04-01T18:23:12;19.00;99.90
14527;DHT22;7350;51.208;4.238;2023-04-01T18:25:43;19.00;99.90
14527;DHT22;7350;51.208;4.238;2023-04-01T18:28:22;19.00;99.90
14527;DHT22;7350;51.208;4.238;2023-04-01T18:30:55;19.10;99.90